createdAt,value
2018-09-20T00:01:59.272Z,17.10
2018-09-20T00:04:27.799Z,17.10
2018-09-20T00:06:56.424Z,17.10
2018-09-20T00:09:24.992Z,17.10
2018-09-20T00:11:53.583Z,17.10
2018-09-20T00:14:22.160Z,17.00
2018-09-20T00:16:50.770Z,16.90
2018-09-20T00:19:19.288Z,16.90
2018-09-20T00:21:47.880Z,16.80
2018-09-20T00:24:16.441Z,16.90
2018-09-20T00:26:44.968Z,16.80
2018-09-20T00:29:13.526Z,16.80
2018-09-20T00:31:42.075Z,16.70
2018-09-20T00:34:10.611Z,16.80
2018-09-20T00:36:39.116Z,16.80
2018-09-20T00:39:11.768Z,16.80
2018-09-20T00:41:40.336Z,16.80
2018-09-20T00:44:09.429Z,16.80
2018-09-20T00:46:37.920Z,16.80
2018-09-20T00:49:06.688Z,16.80
2018-09-20T00:51:35.369Z,16.80
2018-09-20T00:54:04.135Z,16.80
2018-09-20T00:56:32.630Z,16.90
2018-09-20T00:59:01.213Z,16.90
2018-09-20T01:01:29.748Z,16.90
2018-09-20T01:03:58.298Z,16.80
2018-09-20T01:06:26.844Z,16.90
2018-09-20T01:08:55.426Z,16.90
2018-09-20T01:11:24.008Z,16.90
2018-09-20T01:13:52.967Z,16.90
2018-09-20T01:16:21.517Z,16.90
2018-09-20T01:18:50.093Z,16.90
2018-09-20T01:21:18.657Z,16.90
2018-09-20T01:23:47.209Z,16.90
2018-09-20T01:26:15.759Z,16.90
2018-09-20T01:28:44.301Z,16.90
2018-09-20T01:31:12.869Z,17.00
2018-09-20T01:33:41.389Z,17.00
2018-09-20T01:36:09.937Z,17.00
2018-09-20T01:38:38.467Z,16.90
2018-09-20T01:41:07.053Z,16.90
2018-09-20T01:43:35.601Z,16.90
2018-09-20T01:46:04.147Z,16.90
2018-09-20T01:48:32.683Z,16.80
2018-09-20T01:51:01.194Z,16.80
2018-09-20T01:53:29.732Z,16.70
2018-09-20T01:55:58.287Z,16.70
2018-09-20T01:58:26.829Z,16.70
2018-09-20T02:00:55.466Z,16.60
2018-09-20T02:03:24.009Z,16.60
2018-09-20T02:05:52.554Z,16.60
2018-09-20T02:08:21.109Z,16.60
2018-09-20T02:10:49.756Z,16.60
2018-09-20T02:13:18.285Z,16.60
2018-09-20T02:15:46.868Z,16.60
2018-09-20T02:18:15.377Z,16.70
2018-09-20T02:20:43.949Z,16.70
2018-09-20T02:23:12.481Z,16.70
2018-09-20T02:25:40.992Z,16.70
2018-09-20T02:28:09.549Z,16.70
2018-09-20T02:30:38.052Z,16.70
2018-09-20T02:33:06.575Z,16.60
2018-09-20T02:35:35.123Z,16.60
2018-09-20T02:38:03.756Z,16.60
2018-09-20T02:40:32.250Z,16.60
2018-09-20T02:43:00.804Z,16.70
2018-09-20T02:45:29.338Z,16.70
2018-09-20T02:47:58.168Z,16.60
2018-09-20T02:50:26.708Z,16.60
2018-09-20T02:52:55.261Z,16.70
2018-09-20T02:55:23.809Z,16.70
2018-09-20T02:57:52.478Z,16.70
2018-09-20T03:00:21.031Z,16.70
2018-09-20T03:02:49.644Z,16.70
2018-09-20T03:05:18.143Z,16.70
2018-09-20T03:07:46.635Z,16.60
2018-09-20T03:10:15.172Z,16.50
2018-09-20T03:12:43.682Z,16.50
2018-09-20T03:15:12.510Z,16.50
2018-09-20T03:17:41.061Z,16.40
2018-09-20T03:20:09.674Z,16.40
2018-09-20T03:22:38.285Z,16.40
2018-09-20T03:25:06.859Z,16.40
2018-09-20T03:27:35.408Z,16.40
2018-09-20T03:30:04.036Z,16.30
2018-09-20T03:32:32.589Z,16.30
2018-09-20T03:35:01.197Z,16.20
2018-09-20T03:37:29.705Z,16.10
2018-09-20T03:39:58.324Z,16.00
2018-09-20T03:42:26.871Z,15.90
2018-09-20T03:44:55.454Z,15.80
2018-09-20T03:47:23.949Z,15.70
2018-09-20T03:49:52.535Z,15.70
2018-09-20T03:52:21.071Z,15.70
2018-09-20T03:54:49.653Z,15.70
2018-09-20T03:57:18.224Z,15.60
2018-09-20T03:59:46.966Z,15.60
2018-09-20T04:02:15.520Z,15.60
2018-09-20T04:04:44.109Z,15.50
2018-09-20T04:07:12.653Z,15.50
2018-09-20T04:09:41.152Z,15.50
2018-09-20T04:12:09.748Z,15.50
2018-09-20T04:14:38.260Z,15.50
2018-09-20T04:17:06.909Z,15.50
2018-09-20T04:19:35.413Z,15.60
2018-09-20T04:22:04.000Z,15.60
2018-09-20T04:24:32.499Z,15.60
2018-09-20T04:27:01.040Z,15.60
2018-09-20T04:29:29.742Z,15.60
2018-09-20T04:31:58.442Z,15.60
2018-09-20T04:34:26.939Z,15.60
2018-09-20T04:36:55.460Z,15.50
2018-09-20T04:39:24.030Z,15.50
2018-09-20T04:41:52.532Z,15.50
2018-09-20T04:44:21.180Z,15.50
2018-09-20T04:46:49.700Z,15.50
2018-09-20T04:49:18.252Z,15.40
2018-09-20T04:51:46.810Z,15.30
2018-09-20T04:54:15.333Z,15.30
2018-09-20T04:56:43.883Z,15.30
2018-09-20T04:59:12.433Z,15.30
2018-09-20T05:01:41.015Z,15.30
2018-09-20T05:04:09.580Z,15.40
2018-09-20T05:06:38.101Z,15.40
2018-09-20T05:09:09.401Z,15.40
2018-09-20T05:11:37.900Z,15.30
2018-09-20T05:14:06.476Z,15.30
2018-09-20T05:16:35.032Z,15.30
2018-09-20T05:19:03.569Z,15.20
2018-09-20T05:21:32.116Z,15.10
2018-09-20T05:24:00.845Z,15.10
2018-09-20T05:26:29.409Z,15.00
2018-09-20T05:28:57.924Z,15.00
2018-09-20T05:31:26.485Z,15.10
2018-09-20T05:33:55.028Z,15.10
2018-09-20T05:36:23.656Z,15.10
2018-09-20T05:38:52.243Z,15.10
2018-09-20T05:41:20.772Z,15.20
2018-09-20T05:43:49.424Z,15.30
2018-09-20T05:46:17.984Z,15.30
2018-09-20T05:48:46.525Z,15.40
2018-09-20T05:51:15.037Z,15.50
2018-09-20T05:53:43.579Z,15.60
2018-09-20T05:56:12.099Z,15.70
2018-09-20T05:58:40.753Z,15.90
2018-09-20T06:01:09.561Z,15.90
2018-09-20T06:03:38.118Z,16.00
2018-09-20T06:06:06.632Z,16.20
2018-09-20T06:08:35.165Z,16.30
2018-09-20T06:11:03.789Z,16.50
2018-09-20T06:13:32.306Z,16.60
2018-09-20T06:16:00.898Z,16.60
2018-09-20T06:18:29.447Z,16.70
2018-09-20T06:20:57.985Z,16.70
2018-09-20T06:23:26.491Z,16.70
2018-09-20T06:25:55.005Z,16.60
2018-09-20T06:28:23.559Z,16.60
2018-09-20T06:30:52.120Z,16.50
2018-09-20T06:33:20.634Z,16.60
2018-09-20T06:35:49.179Z,16.60
2018-09-20T06:38:17.735Z,16.60
2018-09-20T06:40:46.264Z,16.70
2018-09-20T06:43:14.808Z,16.70
2018-09-20T06:45:43.365Z,16.80
2018-09-20T06:48:11.932Z,16.90
2018-09-20T06:50:40.471Z,17.10
2018-09-20T06:53:08.988Z,17.30
2018-09-20T06:55:37.549Z,17.50
2018-09-20T06:58:06.134Z,17.70
2018-09-20T07:00:34.721Z,17.80
2018-09-20T07:03:03.370Z,17.90
2018-09-20T07:05:31.861Z,17.90
2018-09-20T07:08:00.375Z,17.90
2018-09-20T07:10:28.932Z,17.90
2018-09-20T07:12:57.453Z,18.00
2018-09-20T07:15:26.039Z,18.00
2018-09-20T07:17:54.613Z,18.00
2018-09-20T07:20:23.164Z,18.00
2018-09-20T07:22:51.722Z,18.10
2018-09-20T07:25:20.345Z,18.20
2018-09-20T07:27:48.791Z,18.20
2018-09-20T07:30:17.361Z,18.30
2018-09-20T07:32:45.987Z,18.30
2018-09-20T07:35:14.516Z,18.30
2018-09-20T07:37:43.077Z,18.40
2018-09-20T07:40:11.627Z,18.40
2018-09-20T07:42:40.165Z,18.60
2018-09-20T07:45:08.742Z,18.60
2018-09-20T07:47:37.282Z,18.70
2018-09-20T07:50:06.121Z,18.70
2018-09-20T07:52:34.659Z,18.70
2018-09-20T07:55:03.427Z,18.70
2018-09-20T07:57:31.946Z,18.70
2018-09-20T08:00:02.150Z,18.70
2018-09-20T08:02:30.784Z,18.80
2018-09-20T08:04:59.453Z,18.90
2018-09-20T08:07:28.158Z,19.00
2018-09-20T08:09:56.838Z,19.10
2018-09-20T08:12:25.396Z,19.20
2018-09-20T08:14:54.123Z,19.20
2018-09-20T08:17:22.701Z,19.40
2018-09-20T08:19:51.220Z,19.50
2018-09-20T08:22:19.800Z,19.70
2018-09-20T08:24:48.349Z,19.80
2018-09-20T08:27:16.869Z,19.90
2018-09-20T08:29:45.424Z,20.00
2018-09-20T08:32:13.944Z,20.10
2018-09-20T08:34:42.572Z,20.20
2018-09-20T08:37:11.115Z,20.20
2018-09-20T08:39:39.720Z,20.20
2018-09-20T08:42:08.481Z,20.20
2018-09-20T08:44:37.011Z,20.10
2018-09-20T08:47:05.601Z,20.10
2018-09-20T08:49:34.224Z,20.10
2018-09-20T08:52:02.760Z,20.10
2018-09-20T08:54:31.272Z,20.10
2018-09-20T08:57:00.026Z,20.10
2018-09-20T08:59:28.519Z,20.00
2018-09-20T09:01:57.069Z,19.90
2018-09-20T09:04:25.656Z,19.80
2018-09-20T09:06:54.261Z,19.80
2018-09-20T09:09:22.780Z,19.80
2018-09-20T09:11:51.396Z,19.80
2018-09-20T09:14:19.934Z,19.80
2018-09-20T09:16:48.527Z,19.80
2018-09-20T09:19:17.116Z,19.80
2018-09-20T09:21:45.644Z,19.80
2018-09-20T09:24:14.204Z,19.90
2018-09-20T09:26:42.756Z,20.10
2018-09-20T09:29:11.356Z,20.30
2018-09-20T09:31:39.916Z,20.40
2018-09-20T09:34:08.485Z,20.50
2018-09-20T09:36:37.458Z,20.60
2018-09-20T09:39:08.520Z,20.80
2018-09-20T09:41:37.072Z,21.00
2018-09-20T09:44:05.610Z,21.30
2018-09-20T09:46:34.160Z,21.60
2018-09-20T09:49:02.700Z,21.80
2018-09-20T09:51:31.238Z,21.90
2018-09-20T09:53:59.785Z,21.90
2018-09-20T09:56:28.668Z,21.80
2018-09-20T09:58:58.448Z,21.80
2018-09-20T10:01:27.027Z,21.80
2018-09-20T10:03:55.624Z,21.80
2018-09-20T10:06:24.196Z,21.80
2018-09-20T10:08:52.882Z,21.80
2018-09-20T10:11:21.445Z,21.70
2018-09-20T10:13:50.184Z,21.70
2018-09-20T10:16:18.730Z,21.70
2018-09-20T10:18:47.237Z,21.80
2018-09-20T10:21:15.783Z,21.90
2018-09-20T10:23:44.369Z,21.90
2018-09-20T10:26:12.919Z,21.90
2018-09-20T10:28:41.723Z,21.90
2018-09-20T10:31:10.252Z,22.00
2018-09-20T10:33:38.859Z,22.10
2018-09-20T10:36:07.424Z,22.20
2018-09-20T10:38:35.982Z,22.40
2018-09-20T10:41:04.852Z,22.60
2018-09-20T10:43:33.428Z,22.70
2018-09-20T10:46:01.955Z,22.80
2018-09-20T10:48:30.607Z,22.90
2018-09-20T10:50:59.380Z,23.00
2018-09-20T10:53:27.880Z,23.00
2018-09-20T10:55:56.528Z,23.00
2018-09-20T10:58:25.045Z,23.00
2018-09-20T11:00:53.914Z,23.10
2018-09-20T11:03:22.533Z,23.20
2018-09-20T11:05:51.197Z,23.30
2018-09-20T11:08:19.728Z,23.30
2018-09-20T11:10:48.295Z,23.20
2018-09-20T11:13:16.832Z,23.10
2018-09-20T11:15:45.387Z,23.00
2018-09-20T11:18:14.016Z,22.90
2018-09-20T11:20:42.608Z,22.80
2018-09-20T11:23:11.274Z,22.80
2018-09-20T11:25:39.871Z,22.80
2018-09-20T11:28:08.442Z,22.80
2018-09-20T11:30:36.945Z,22.80
2018-09-20T11:33:05.731Z,22.90
2018-09-20T11:35:34.238Z,23.00
2018-09-20T11:38:02.892Z,23.20
2018-09-20T11:40:31.466Z,23.50
2018-09-20T11:42:59.976Z,23.60
2018-09-20T11:45:29.233Z,23.60
2018-09-20T11:47:57.787Z,23.80
2018-09-20T11:50:26.839Z,23.90
2018-09-20T11:52:55.405Z,23.70
2018-09-20T11:55:23.969Z,23.50
2018-09-20T11:57:52.521Z,23.30
2018-09-20T12:00:22.172Z,23.30
2018-09-20T12:02:52.344Z,23.20
2018-09-20T12:05:21.486Z,23.10
2018-09-20T12:07:50.064Z,23.00
2018-09-20T12:10:19.336Z,22.90
2018-09-20T12:12:49.068Z,22.90
2018-09-20T12:15:17.703Z,22.90
2018-09-20T12:17:46.554Z,22.90
2018-09-20T12:20:15.117Z,23.00
2018-09-20T12:22:43.805Z,23.20
2018-09-20T12:25:12.380Z,23.10
2018-09-20T12:27:40.927Z,23.20
2018-09-20T12:30:09.833Z,23.20
2018-09-20T12:32:38.491Z,23.30
2018-09-20T12:35:07.106Z,23.40
2018-09-20T12:37:35.608Z,23.50
2018-09-20T12:40:04.725Z,23.60
2018-09-20T12:42:33.394Z,23.60
2018-09-20T12:45:02.483Z,23.50
2018-09-20T12:47:31.333Z,23.20
2018-09-20T12:50:00.076Z,23.10
2018-09-20T12:52:28.824Z,23.40
2018-09-20T12:54:58.406Z,23.50
2018-09-20T12:57:26.981Z,23.60
2018-09-20T12:59:55.644Z,23.50
2018-09-20T13:02:24.451Z,23.50
2018-09-20T13:04:53.023Z,23.50
2018-09-20T13:07:21.718Z,23.30
2018-09-20T13:09:50.286Z,23.20
2018-09-20T13:12:18.880Z,23.10
2018-09-20T13:14:47.484Z,23.00
2018-09-20T13:17:16.023Z,22.90
2018-09-20T13:19:44.547Z,22.90
2018-09-20T13:22:13.124Z,22.90
2018-09-20T13:24:41.675Z,23.00
2018-09-20T13:27:10.389Z,23.10
2018-09-20T13:29:38.953Z,23.20
2018-09-20T13:32:07.656Z,23.50
2018-09-20T13:34:36.203Z,23.60
2018-09-20T13:37:04.768Z,23.50
2018-09-20T13:39:33.549Z,23.40
2018-09-20T13:42:02.109Z,23.30
2018-09-20T13:44:30.853Z,23.20
2018-09-20T13:46:59.648Z,23.20
2018-09-20T13:49:28.316Z,23.20
2018-09-20T13:51:57.216Z,23.20
2018-09-20T13:54:26.038Z,23.20
2018-09-20T13:56:55.052Z,23.20
2018-09-20T13:59:23.720Z,23.10
2018-09-20T14:01:52.513Z,23.00
2018-09-20T14:04:21.281Z,23.00
2018-09-20T14:06:49.960Z,22.90
2018-09-20T14:09:18.481Z,22.80
2018-09-20T14:11:47.063Z,22.70
2018-09-20T14:14:15.577Z,22.70
2018-09-20T14:16:44.116Z,22.80
2018-09-20T14:19:12.807Z,22.90
2018-09-20T14:21:41.880Z,23.10
2018-09-20T14:24:10.470Z,23.10
2018-09-20T14:26:39.025Z,23.20
2018-09-20T14:29:07.585Z,23.30
2018-09-20T14:31:36.300Z,23.50
2018-09-20T14:34:07.939Z,23.50
2018-09-20T14:36:36.612Z,23.40
2018-09-20T14:39:08.042Z,23.30
2018-09-20T14:41:36.573Z,23.30
2018-09-20T14:44:05.092Z,23.40
2018-09-20T14:46:33.708Z,23.50
2018-09-20T14:49:02.278Z,23.40
2018-09-20T14:51:31.019Z,23.20
2018-09-20T14:53:59.571Z,23.30
2018-09-20T14:56:28.139Z,23.40
2018-09-20T14:58:56.730Z,23.30
2018-09-20T15:01:25.304Z,23.40
2018-09-20T15:03:53.840Z,23.40
2018-09-20T15:06:22.396Z,23.20
2018-09-20T15:08:51.572Z,23.00
2018-09-20T15:11:20.119Z,23.00
2018-09-20T15:13:48.790Z,23.00
2018-09-20T15:16:17.546Z,22.90
2018-09-20T15:18:46.075Z,22.80
2018-09-20T15:21:14.776Z,22.80
2018-09-20T15:23:43.347Z,22.70
2018-09-20T15:26:11.857Z,22.70
2018-09-20T15:28:40.413Z,22.80
2018-09-20T15:31:08.937Z,22.80
2018-09-20T15:33:37.481Z,23.00
2018-09-20T15:36:06.001Z,23.00
2018-09-20T15:39:05.416Z,23.00
2018-09-20T15:41:33.936Z,23.10
2018-09-20T15:44:05.964Z,23.00
2018-09-20T15:46:34.512Z,22.90
2018-09-20T15:49:05.489Z,22.70
2018-09-20T15:51:34.318Z,22.60
2018-09-20T15:54:05.156Z,22.40
2018-09-20T15:56:33.705Z,22.30
2018-09-20T15:59:02.221Z,22.10
2018-09-20T16:01:30.826Z,22.00
2018-09-20T16:03:59.410Z,21.90
2018-09-20T16:06:28.016Z,21.80
2018-09-20T16:08:56.584Z,21.80
2018-09-20T16:11:25.158Z,21.80
2018-09-20T16:13:53.989Z,21.70
2018-09-20T16:16:22.556Z,21.70
2018-09-20T16:18:51.141Z,21.70
2018-09-20T16:21:19.803Z,21.60
2018-09-20T16:23:48.759Z,21.50
2018-09-20T16:26:17.313Z,21.50
2018-09-20T16:28:54.298Z,21.40
2018-09-20T16:32:46.364Z,21.40
2018-09-20T16:35:23.362Z,21.30
2018-09-20T16:38:22.891Z,21.20
2018-09-20T16:40:52.946Z,21.20
2018-09-20T16:43:21.508Z,21.10
2018-09-20T16:45:50.085Z,21.00
2018-09-20T16:48:18.800Z,20.90
2018-09-20T16:50:47.762Z,20.80
2018-09-20T16:53:16.419Z,20.70
2018-09-20T16:55:44.932Z,20.60
2018-09-20T16:58:13.502Z,20.50
2018-09-20T17:00:42.042Z,20.40
2018-09-20T17:03:10.581Z,20.30
2018-09-20T17:05:39.146Z,20.20
2018-09-20T17:08:07.758Z,20.20
2018-09-20T17:10:36.288Z,20.10
2018-09-20T17:13:08.421Z,20.10
2018-09-20T17:15:36.961Z,20.00
2018-09-20T17:18:06.223Z,20.00
2018-09-20T17:20:34.776Z,19.90
2018-09-20T17:23:07.717Z,19.80
2018-09-20T17:25:36.348Z,19.80
2018-09-20T17:28:05.282Z,19.80
2018-09-20T17:30:33.853Z,19.70
2018-09-20T17:33:05.108Z,19.60
2018-09-20T17:35:34.546Z,19.50
2018-09-20T17:38:04.780Z,19.40
2018-09-20T17:40:34.805Z,19.30
2018-09-20T17:43:06.675Z,19.10
2018-09-20T17:45:35.434Z,19.00
2018-09-20T17:48:05.526Z,18.90
2018-09-20T17:50:34.099Z,18.90
2018-09-20T17:53:05.044Z,18.80
2018-09-20T17:55:33.979Z,18.70
2018-09-20T17:58:02.723Z,18.60
2018-09-20T18:00:31.376Z,18.50
2018-09-20T18:02:59.959Z,18.40
2018-09-20T18:05:28.614Z,18.20
2018-09-20T18:07:57.228Z,18.20
2018-09-20T18:10:25.839Z,18.10
2018-09-20T18:12:54.396Z,18.00
2018-09-20T18:15:22.981Z,17.90
2018-09-20T18:17:51.631Z,17.80
2018-09-20T18:20:20.192Z,17.80
2018-09-20T18:22:49.319Z,17.70
2018-09-20T18:25:17.920Z,17.60
2018-09-20T18:27:46.478Z,17.50
2018-09-20T18:30:17.657Z,17.40
2018-09-20T18:32:46.227Z,17.40
2018-09-20T18:35:14.818Z,17.30
2018-09-20T18:37:44.676Z,17.20
2018-09-20T18:40:13.220Z,17.20
2018-09-20T18:42:41.870Z,17.10
2018-09-20T18:45:10.916Z,17.00
2018-09-20T18:47:39.471Z,17.10
2018-09-20T18:50:08.165Z,17.00
2018-09-20T18:52:36.744Z,17.00
2018-09-20T18:55:06.165Z,16.90
2018-09-20T18:57:34.881Z,16.80
2018-09-20T19:00:06.675Z,16.80
2018-09-20T19:02:35.238Z,16.70
2018-09-20T19:05:05.265Z,16.70
2018-09-20T19:07:33.831Z,16.70
2018-09-20T19:10:05.395Z,16.60
2018-09-20T19:12:33.995Z,16.50
2018-09-20T19:15:02.557Z,16.50
2018-09-20T19:17:31.146Z,16.40
2018-09-20T19:19:59.686Z,16.40
2018-09-20T19:22:28.278Z,16.30
2018-09-20T19:24:56.901Z,16.30
2018-09-20T19:27:25.482Z,16.20
2018-09-20T19:29:54.001Z,16.20
2018-09-20T19:32:22.616Z,16.10
2018-09-20T19:34:51.125Z,16.10
2018-09-20T19:37:19.623Z,16.10
2018-09-20T19:39:48.167Z,16.10
2018-09-20T19:42:16.678Z,16.10
2018-09-20T19:44:45.236Z,16.00
2018-09-20T19:47:13.813Z,16.00
2018-09-20T19:49:42.528Z,16.00
2018-09-20T19:52:11.044Z,16.00
2018-09-20T19:54:39.517Z,16.00
2018-09-20T19:57:08.061Z,16.00
2018-09-20T19:59:36.551Z,15.90
2018-09-20T20:02:05.075Z,15.90
2018-09-20T20:04:33.640Z,15.90
2018-09-20T20:07:02.162Z,15.80
2018-09-20T20:09:30.704Z,15.80
2018-09-20T20:11:59.255Z,15.80
2018-09-20T20:14:27.767Z,15.80
2018-09-20T20:16:56.229Z,15.80
2018-09-20T20:19:24.740Z,15.90
2018-09-20T20:21:53.403Z,15.90
2018-09-20T20:24:21.899Z,16.00
2018-09-20T20:26:50.457Z,16.00
2018-09-20T20:29:18.988Z,16.00
2018-09-20T20:31:47.512Z,15.90
2018-09-20T20:34:15.989Z,15.90
2018-09-20T20:36:44.464Z,15.90
2018-09-20T20:39:13.002Z,15.90
2018-09-20T20:41:41.568Z,15.90
2018-09-20T20:44:10.112Z,15.90
2018-09-20T20:46:38.563Z,15.90
2018-09-20T20:49:07.090Z,15.90
2018-09-20T20:51:35.661Z,15.80
2018-09-20T20:54:04.170Z,15.80
2018-09-20T20:56:32.732Z,15.70
2018-09-20T20:59:01.224Z,15.70
2018-09-20T21:01:29.755Z,15.70
2018-09-20T21:03:58.265Z,15.70
2018-09-20T21:06:26.868Z,15.70
2018-09-20T21:08:55.399Z,15.60
2018-09-20T21:11:23.883Z,15.60
2018-09-20T21:13:52.414Z,15.60
2018-09-20T21:16:20.876Z,15.50
2018-09-20T21:18:49.846Z,15.60
2018-09-20T21:21:18.364Z,15.50
2018-09-20T21:23:46.912Z,15.50
2018-09-20T21:26:19.846Z,15.50
2018-09-20T21:28:48.397Z,15.50
2018-09-20T21:31:17.244Z,15.50
2018-09-20T21:33:45.897Z,15.40
2018-09-20T21:36:14.474Z,15.40
2018-09-20T21:38:43.079Z,15.30
2018-09-20T21:41:11.798Z,15.30
2018-09-20T21:43:40.573Z,15.30
2018-09-20T21:46:09.118Z,15.30
2018-09-20T21:48:37.717Z,15.40
2018-09-20T21:51:06.530Z,15.30
2018-09-20T21:53:35.979Z,15.40
2018-09-20T21:56:06.096Z,15.40
2018-09-20T21:58:34.604Z,15.50
2018-09-20T22:01:06.925Z,15.50
2018-09-20T22:03:35.437Z,15.50
2018-09-20T22:06:07.213Z,15.50
2018-09-20T22:08:36.189Z,15.50
2018-09-20T22:11:06.466Z,15.50
2018-09-20T22:13:35.957Z,15.60
2018-09-20T22:16:06.128Z,15.60
2018-09-20T22:18:34.833Z,15.70
2018-09-20T22:21:06.258Z,15.70
2018-09-20T22:23:34.729Z,15.80
2018-09-20T22:26:03.245Z,15.80
2018-09-20T22:28:31.832Z,15.80
2018-09-20T22:31:00.380Z,15.80
2018-09-20T22:33:28.892Z,15.80
2018-09-20T22:35:57.421Z,15.80
2018-09-20T22:38:26.249Z,15.70
2018-09-20T22:40:54.824Z,15.70
2018-09-20T22:43:23.416Z,15.70
2018-09-20T22:45:51.952Z,15.70
2018-09-20T22:48:20.507Z,15.70
2018-09-20T22:50:49.165Z,15.60
2018-09-20T22:53:17.660Z,15.60
2018-09-20T22:55:46.422Z,15.60
2018-09-20T22:58:14.961Z,15.60
2018-09-20T23:00:43.500Z,15.50
2018-09-20T23:03:12.024Z,15.50
2018-09-20T23:05:40.558Z,15.50
2018-09-20T23:08:09.097Z,15.50
2018-09-20T23:10:37.786Z,15.50
2018-09-20T23:13:06.665Z,15.60
2018-09-20T23:15:35.177Z,15.60
2018-09-20T23:18:06.358Z,15.60
2018-09-20T23:20:35.001Z,15.60
2018-09-20T23:23:06.624Z,15.70
2018-09-20T23:25:35.135Z,15.70
2018-09-20T23:28:03.668Z,15.70
2018-09-20T23:30:32.481Z,15.80
2018-09-20T23:33:00.965Z,15.80
2018-09-20T23:35:29.464Z,15.90
2018-09-20T23:37:57.953Z,15.90
2018-09-20T23:40:26.483Z,15.90
2018-09-20T23:42:54.952Z,15.90
2018-09-20T23:45:23.498Z,15.90
2018-09-20T23:47:52.026Z,15.90
2018-09-20T23:50:20.502Z,15.90
2018-09-20T23:52:49.052Z,15.90
2018-09-20T23:55:17.565Z,15.90
2018-09-20T23:57:46.013Z,16.00
